sensor_id;sensor_type;location;lat;lon;timestamp;temperature;humidity
13405;DHT22;6773;51.192;7.024;2023-04-06T00:01:55;4.50;82.50
13405;DHT22;6773;51.192;7.024;2023-04-06T00:04:20;4.50;82.20
13405;DHT22;6773;51.192;7.024;2023-04-06T00:06:46;4.50;82.20
13405;DHT22;6773;51.192;7.024;2023-04-06T00:09:12;4.50;82.00
13405;DHT22;6773;51.192;7.024;2023-04-06T00:11:37;4.60;82.60
13405;DHT22;6773;51.192;7.024;2023-04-06T00:14:03;4.50;82.10
13405;DHT22;6773;51.192;7.024;2023-04-06T00:16:28;4.40;82.40
13405;DHT22;6773;51.192;7.024;2023-04-06T00:21:20;4.40;82.70
13405;DHT22;6773;51.192;7.024;2023-04-06T00:26:12;4.30;82.30
13405;DHT22;6773;51.192;7.024;2023-04-06T00:28:37;4.30;82.50
13405;DHT22;6773;51.192;7.024;2023-04-06T00:31:03;4.30;82.70
13405;DHT22;6773;51.192;7.024;2023-04-06T00:35:55;4.30;83.10
13405;DHT22;6773;51.192;7.024;2023-04-06T00:38:21;4.20;83.20
13405;DHT22;6773;51.192;7.024;2023-04-06T00:40:47;4.10;83.40
13405;DHT22;6773;51.192;7.024;2023-04-06T00:43:13;4.10;83.50
13405;DHT22;6773;51.192;7.024;2023-04-06T00:45:42;4.10;84.20
13405;DHT22;6773;51.192;7.024;2023-04-06T00:48:08;4.10;84.20
13405;DHT22;6773;51.192;7.024;2023-04-06T00:50:35;4.10;84.30
13405;DHT22;6773;51.192;7.024;2023-04-06T00:53:01;4.00;84.60
13405;DHT22;6773;51.192;7.024;2023-04-06T00:57:53;4.00;85.10
13405;DHT22;6773;51.192;7.024;2023-04-06T01:00:19;4.00;85.10
13405;DHT22;6773;51.192;7.024;2023-04-06T01:02:44;4.00;85.40
13405;DHT22;6773;51.192;7.024;2023-04-06T01:05:11;3.90;86.20
13405;DHT22;6773;51.192;7.024;2023-04-06T01:07:37;3.90;86.60
13405;DHT22;6773;51.192;7.024;2023-04-06T01:10:03;3.80;86.40
13405;DHT22;6773;51.192;7.024;2023-04-06T01:14:55;3.80;86.20
13405;DHT22;6773;51.192;7.024;2023-04-06T01:17:21;3.80;86.60
13405;DHT22;6773;51.192;7.024;2023-04-06T01:19:46;3.80;86.80
13405;DHT22;6773;51.192;7.024;2023-04-06T01:22:18;3.70;86.40
13405;DHT22;6773;51.192;7.024;2023-04-06T01:24:44;3.70;86.60
13405;DHT22;6773;51.192;7.024;2023-04-06T01:27:10;3.70;86.60
13405;DHT22;6773;51.192;7.024;2023-04-06T01:29:35;3.70;87.10
13405;DHT22;6773;51.192;7.024;2023-04-06T01:32:01;3.60;87.00
13405;DHT22;6773;51.192;7.024;2023-04-06T01:34:27;3.70;87.30
13405;DHT22;6773;51.192;7.024;2023-04-06T01:36:52;3.70;86.90
13405;DHT22;6773;51.192;7.024;2023-04-06T01:39:19;3.60;87.30
13405;DHT22;6773;51.192;7.024;2023-04-06T01:44:14;3.60;86.90
13405;DHT22;6773;51.192;7.024;2023-04-06T01:46:40;3.60;87.30
13405;DHT22;6773;51.192;7.024;2023-04-06T01:49:05;3.60;87.90
13405;DHT22;6773;51.192;7.024;2023-04-06T01:51:31;3.60;88.20
13405;DHT22;6773;51.192;7.024;2023-04-06T01:53:57;3.50;88.00
13405;DHT22;6773;51.192;7.024;2023-04-06T01:56:23;3.50;88.30
13405;DHT22;6773;51.192;7.024;2023-04-06T01:58:49;3.60;88.00
13405;DHT22;6773;51.192;7.024;2023-04-06T02:01:15;3.60;89.50
13405;DHT22;6773;51.192;7.024;2023-04-06T02:03:41;3.60;88.60
13405;DHT22;6773;51.192;7.024;2023-04-06T02:06:06;3.50;88.90
13405;DHT22;6773;51.192;7.024;2023-04-06T02:08:32;3.50;89.40
13405;DHT22;6773;51.192;7.024;2023-04-06T02:10:57;3.50;90.10
13405;DHT22;6773;51.192;7.024;2023-04-06T02:13:23;3.50;90.40
13405;DHT22;6773;51.192;7.024;2023-04-06T02:15:48;3.50;90.20
13405;DHT22;6773;51.192;7.024;2023-04-06T02:18:14;3.50;90.40
13405;DHT22;6773;51.192;7.024;2023-04-06T02:20:42;3.50;90.40
13405;DHT22;6773;51.192;7.024;2023-04-06T02:23:08;3.50;90.40
13405;DHT22;6773;51.192;7.024;2023-04-06T02:30:26;3.40;90.60
13405;DHT22;6773;51.192;7.024;2023-04-06T02:32:51;3.30;90.30
13405;DHT22;6773;51.192;7.024;2023-04-06T02:35:17;3.30;90.60
13405;DHT22;6773;51.192;7.024;2023-04-06T02:37:43;3.40;90.80
13405;DHT22;6773;51.192;7.024;2023-04-06T02:40:09;3.30;90.90
13405;DHT22;6773;51.192;7.024;2023-04-06T02:42:35;3.40;90.80
13405;DHT22;6773;51.192;7.024;2023-04-06T02:45:01;3.40;91.00
13405;DHT22;6773;51.192;7.024;2023-04-06T02:47:26;3.30;90.90
13405;DHT22;6773;51.192;7.024;2023-04-06T02:49:52;3.30;90.90
13405;DHT22;6773;51.192;7.024;2023-04-06T02:52:17;3.20;90.80
13405;DHT22;6773;51.192;7.024;2023-04-06T02:54:43;3.30;91.00
13405;DHT22;6773;51.192;7.024;2023-04-06T02:59:35;3.20;91.00
13405;DHT22;6773;51.192;7.024;2023-04-06T03:02:00;3.20;91.00
13405;DHT22;6773;51.192;7.024;2023-04-06T03:04:26;3.20;91.10
13405;DHT22;6773;51.192;7.024;2023-04-06T03:06:53;3.20;90.90
13405;DHT22;6773;51.192;7.024;2023-04-06T03:14:11;3.20;91.00
13405;DHT22;6773;51.192;7.024;2023-04-06T03:16:36;3.10;90.80
13405;DHT22;6773;51.192;7.024;2023-04-06T03:19:02;3.20;90.80
13405;DHT22;6773;51.192;7.024;2023-04-06T03:21:27;3.10;90.80
13405;DHT22;6773;51.192;7.024;2023-04-06T03:23:53;3.20;91.40
13405;DHT22;6773;51.192;7.024;2023-04-06T03:26:19;3.20;91.40
13405;DHT22;6773;51.192;7.024;2023-04-06T03:28:44;3.20;91.20
13405;DHT22;6773;51.192;7.024;2023-04-06T03:31:10;3.20;91.10
13405;DHT22;6773;51.192;7.024;2023-04-06T03:33:35;3.20;91.60
13405;DHT22;6773;51.192;7.024;2023-04-06T03:36:01;3.20;91.50
13405;DHT22;6773;51.192;7.024;2023-04-06T03:40:52;3.10;91.20
13405;DHT22;6773;51.192;7.024;2023-04-06T03:43:18;3.00;91.30
13405;DHT22;6773;51.192;7.024;2023-04-06T03:45:44;3.10;91.20
13405;DHT22;6773;51.192;7.024;2023-04-06T03:48:09;3.10;91.20
13405;DHT22;6773;51.192;7.024;2023-04-06T03:50:35;3.10;91.50
13405;DHT22;6773;51.192;7.024;2023-04-06T03:53:00;3.00;91.30
13405;DHT22;6773;51.192;7.024;2023-04-06T03:55:28;3.10;91.40
13405;DHT22;6773;51.192;7.024;2023-04-06T04:00:20;3.00;91.00
13405;DHT22;6773;51.192;7.024;2023-04-06T04:02:45;3.00;91.10
13405;DHT22;6773;51.192;7.024;2023-04-06T04:05:11;3.00;90.80
13405;DHT22;6773;51.192;7.024;2023-04-06T04:07:37;3.00;90.90
13405;DHT22;6773;51.192;7.024;2023-04-06T04:10:02;3.00;90.60
13405;DHT22;6773;51.192;7.024;2023-04-06T04:14:54;3.00;90.90
13405;DHT22;6773;51.192;7.024;2023-04-06T04:17:21;3.00;91.00
13405;DHT22;6773;51.192;7.024;2023-04-06T04:19:47;3.00;91.20
13405;DHT22;6773;51.192;7.024;2023-04-06T04:22:12;3.00;90.90
13405;DHT22;6773;51.192;7.024;2023-04-06T04:27:04;2.90;91.00
13405;DHT22;6773;51.192;7.024;2023-04-06T04:29:30;2.90;90.90
13405;DHT22;6773;51.192;7.024;2023-04-06T04:31:56;2.90;90.80
13405;DHT22;6773;51.192;7.024;2023-04-06T04:36:51;3.00;90.80
13405;DHT22;6773;51.192;7.024;2023-04-06T04:39:17;3.00;90.70
13405;DHT22;6773;51.192;7.024;2023-04-06T04:41:43;2.90;90.60
13405;DHT22;6773;51.192;7.024;2023-04-06T04:44:08;3.00;90.60
13405;DHT22;6773;51.192;7.024;2023-04-06T04:46:34;3.00;90.40
13405;DHT22;6773;51.192;7.024;2023-04-06T04:49:00;3.00;90.30
13405;DHT22;6773;51.192;7.024;2023-04-06T04:51:25;3.00;90.20
13405;DHT22;6773;51.192;7.024;2023-04-06T04:53:51;3.00;90.60
13405;DHT22;6773;51.192;7.024;2023-04-06T04:58:42;3.00;90.20
13405;DHT22;6773;51.192;7.024;2023-04-06T05:01:08;3.00;90.00
13405;DHT22;6773;51.192;7.024;2023-04-06T05:03:34;3.10;90.00
13405;DHT22;6773;51.192;7.024;2023-04-06T05:08:26;3.10;89.20
13405;DHT22;6773;51.192;7.024;2023-04-06T05:10:52;3.10;89.00
13405;DHT22;6773;51.192;7.024;2023-04-06T05:13:18;3.10;88.50
13405;DHT22;6773;51.192;7.024;2023-04-06T05:18:10;3.00;88.80
13405;DHT22;6773;51.192;7.024;2023-04-06T05:20:37;3.10;88.60
13405;DHT22;6773;51.192;7.024;2023-04-06T05:23:03;3.10;88.10
13405;DHT22;6773;51.192;7.024;2023-04-06T05:25:29;3.10;87.10
13405;DHT22;6773;51.192;7.024;2023-04-06T05:27:54;3.20;87.40
13405;DHT22;6773;51.192;7.024;2023-04-06T05:30:20;3.20;87.00
13405;DHT22;6773;51.192;7.024;2023-04-06T05:32:46;3.30;86.90
13405;DHT22;6773;51.192;7.024;2023-04-06T05:35:12;3.40;86.30
13405;DHT22;6773;51.192;7.024;2023-04-06T05:37:39;3.40;86.00
13405;DHT22;6773;51.192;7.024;2023-04-06T05:40:05;3.40;86.00
13405;DHT22;6773;51.192;7.024;2023-04-06T05:42:38;3.50;86.10
13405;DHT22;6773;51.192;7.024;2023-04-06T05:45:05;3.50;85.60
13405;DHT22;6773;51.192;7.024;2023-04-06T05:47:31;3.50;84.90
13405;DHT22;6773;51.192;7.024;2023-04-06T05:54:48;3.60;84.50
13405;DHT22;6773;51.192;7.024;2023-04-06T05:57:14;3.60;83.80
13405;DHT22;6773;51.192;7.024;2023-04-06T06:02:06;3.80;83.60
13405;DHT22;6773;51.192;7.024;2023-04-06T06:06:57;3.90;83.20
13405;DHT22;6773;51.192;7.024;2023-04-06T06:09:23;4.00;82.90
13405;DHT22;6773;51.192;7.024;2023-04-06T06:11:49;4.00;83.10
13405;DHT22;6773;51.192;7.024;2023-04-06T06:21:33;4.40;82.60
13405;DHT22;6773;51.192;7.024;2023-04-06T06:23:59;4.40;81.90
13405;DHT22;6773;51.192;7.024;2023-04-06T06:26:25;4.50;82.20
13405;DHT22;6773;51.192;7.024;2023-04-06T06:28:51;4.70;82.10
13405;DHT22;6773;51.192;7.024;2023-04-06T06:33:45;4.80;82.40
13405;DHT22;6773;51.192;7.024;2023-04-06T06:36:11;4.90;81.70
13405;DHT22;6773;51.192;7.024;2023-04-06T06:41:04;5.00;81.60
13405;DHT22;6773;51.192;7.024;2023-04-06T06:43:29;5.10;82.10
13405;DHT22;6773;51.192;7.024;2023-04-06T06:48:21;5.40;79.90
13405;DHT22;6773;51.192;7.024;2023-04-06T06:50:47;4.20;79.40
13405;DHT22;6773;51.192;7.024;2023-04-06T06:53:13;5.60;80.50
13405;DHT22;6773;51.192;7.024;2023-04-06T06:55:40;5.60;80.10
13405;DHT22;6773;51.192;7.024;2023-04-06T06:58:05;5.80;79.60
13405;DHT22;6773;51.192;7.024;2023-04-06T07:00:32;5.90;79.10
13405;DHT22;6773;51.192;7.024;2023-04-06T07:05:23;6.10;78.40
13405;DHT22;6773;51.192;7.024;2023-04-06T07:07:49;6.20;78.20
13405;DHT22;6773;51.192;7.024;2023-04-06T07:10:15;6.30;78.60
13405;DHT22;6773;51.192;7.024;2023-04-06T07:12:40;6.50;78.50
13405;DHT22;6773;51.192;7.024;2023-04-06T07:15:06;6.40;77.70
13405;DHT22;6773;51.192;7.024;2023-04-06T07:17:32;6.40;77.90
13405;DHT22;6773;51.192;7.024;2023-04-06T07:19:58;6.60;78.10
13405;DHT22;6773;51.192;7.024;2023-04-06T07:24:49;6.90;77.50
13405;DHT22;6773;51.192;7.024;2023-04-06T07:29:42;7.10;76.90
13405;DHT22;6773;51.192;7.024;2023-04-06T07:32:08;7.20;76.20
13405;DHT22;6773;51.192;7.024;2023-04-06T07:34:34;7.20;76.30
13405;DHT22;6773;51.192;7.024;2023-04-06T07:36:59;7.40;77.10
13405;DHT22;6773;51.192;7.024;2023-04-06T07:41:52;8.00;74.90
13405;DHT22;6773;51.192;7.024;2023-04-06T07:46:44;8.40;72.70
13405;DHT22;6773;51.192;7.024;2023-04-06T07:49:09;8.40;73.10
13405;DHT22;6773;51.192;7.024;2023-04-06T07:51:39;8.60;72.70
13405;DHT22;6773;51.192;7.024;2023-04-06T07:54:04;8.50;72.40
13405;DHT22;6773;51.192;7.024;2023-04-06T07:56:30;8.70;72.90
13405;DHT22;6773;51.192;7.024;2023-04-06T07:58:56;8.70;72.50
13405;DHT22;6773;51.192;7.024;2023-04-06T08:03:49;8.90;71.40
13405;DHT22;6773;51.192;7.024;2023-04-06T08:06:15;8.80;72.20
13405;DHT22;6773;51.192;7.024;2023-04-06T08:08:42;9.10;71.90
13405;DHT22;6773;51.192;7.024;2023-04-06T08:13:34;9.40;71.20
13405;DHT22;6773;51.192;7.024;2023-04-06T08:16:00;9.70;71.40
13405;DHT22;6773;51.192;7.024;2023-04-06T08:18:26;9.90;70.20
13405;DHT22;6773;51.192;7.024;2023-04-06T08:20:52;9.80;69.70
13405;DHT22;6773;51.192;7.024;2023-04-06T08:25:43;10.10;68.20
13405;DHT22;6773;51.192;7.024;2023-04-06T08:28:09;9.70;69.60
13405;DHT22;6773;51.192;7.024;2023-04-06T08:30:35;9.70;70.10
13405;DHT22;6773;51.192;7.024;2023-04-06T08:33:01;9.80;70.70
13405;DHT22;6773;51.192;7.024;2023-04-06T08:35:27;10.00;69.90
13405;DHT22;6773;51.192;7.024;2023-04-06T08:37:53;9.90;69.20
13405;DHT22;6773;51.192;7.024;2023-04-06T08:40:18;10.00;69.60
13405;DHT22;6773;51.192;7.024;2023-04-06T08:42:57;10.00;70.30
13405;DHT22;6773;51.192;7.024;2023-04-06T08:45:25;10.20;70.50
13405;DHT22;6773;51.192;7.024;2023-04-06T08:47:51;10.00;68.40
13405;DHT22;6773;51.192;7.024;2023-04-06T08:50:18;10.00;68.90
13405;DHT22;6773;51.192;7.024;2023-04-06T08:52:46;10.20;69.70
13405;DHT22;6773;51.192;7.024;2023-04-06T08:55:13;10.40;69.10
13405;DHT22;6773;51.192;7.024;2023-04-06T08:57:39;10.60;67.90
13405;DHT22;6773;51.192;7.024;2023-04-06T09:00:07;10.70;66.70
13405;DHT22;6773;51.192;7.024;2023-04-06T09:02:38;10.80;67.90
13405;DHT22;6773;51.192;7.024;2023-04-06T09:05:04;11.20;68.00
13405;DHT22;6773;51.192;7.024;2023-04-06T09:09:56;11.10;66.00
13405;DHT22;6773;51.192;7.024;2023-04-06T09:12:24;11.00;66.20
13405;DHT22;6773;51.192;7.024;2023-04-06T09:14:49;10.90;66.80
13405;DHT22;6773;51.192;7.024;2023-04-06T09:17:26;11.00;67.40
13405;DHT22;6773;51.192;7.024;2023-04-06T09:19:53;11.20;67.00
13405;DHT22;6773;51.192;7.024;2023-04-06T09:22:19;11.10;67.20
13405;DHT22;6773;51.192;7.024;2023-04-06T09:27:13;11.50;67.30
13405;DHT22;6773;51.192;7.024;2023-04-06T09:29:39;11.50;67.50
13405;DHT22;6773;51.192;7.024;2023-04-06T09:32:06;11.60;67.10
13405;DHT22;6773;51.192;7.024;2023-04-06T09:34:33;11.30;66.20
13405;DHT22;6773;51.192;7.024;2023-04-06T09:36:59;11.00;65.10
13405;DHT22;6773;51.192;7.024;2023-04-06T09:39:25;11.00;65.60
13405;DHT22;6773;51.192;7.024;2023-04-06T09:41:52;11.00;65.50
13405;DHT22;6773;51.192;7.024;2023-04-06T09:44:19;11.20;66.60
13405;DHT22;6773;51.192;7.024;2023-04-06T09:46:46;11.40;66.50
13405;DHT22;6773;51.192;7.024;2023-04-06T09:49:13;11.50;65.60
13405;DHT22;6773;51.192;7.024;2023-04-06T09:51:46;11.60;66.60
13405;DHT22;6773;51.192;7.024;2023-04-06T09:54:18;11.80;66.30
13405;DHT22;6773;51.192;7.024;2023-04-06T09:56:47;11.50;64.40
13405;DHT22;6773;51.192;7.024;2023-04-06T10:02:44;11.80;65.60
13405;DHT22;6773;51.192;7.024;2023-04-06T10:08:13;12.30;64.50
13405;DHT22;6773;51.192;7.024;2023-04-06T10:10:41;12.20;63.80
13405;DHT22;6773;51.192;7.024;2023-04-06T10:13:10;12.00;64.40
13405;DHT22;6773;51.192;7.024;2023-04-06T10:15:38;12.50;65.10
13405;DHT22;6773;51.192;7.024;2023-04-06T10:20:43;12.80;63.70
13405;DHT22;6773;51.192;7.024;2023-04-06T10:23:26;13.00;63.20
13405;DHT22;6773;51.192;7.024;2023-04-06T10:25:59;13.10;63.60
13405;DHT22;6773;51.192;7.024;2023-04-06T10:28:26;13.60;62.90
13405;DHT22;6773;51.192;7.024;2023-04-06T10:31:00;13.70;63.10
13405;DHT22;6773;51.192;7.024;2023-04-06T10:33:27;13.90;62.90
13405;DHT22;6773;51.192;7.024;2023-04-06T10:35:53;13.70;61.50
13405;DHT22;6773;51.192;7.024;2023-04-06T10:38:20;13.60;61.60
13405;DHT22;6773;51.192;7.024;2023-04-06T10:40:47;13.40;62.70
13405;DHT22;6773;51.192;7.024;2023-04-06T10:43:22;13.20;62.40
13405;DHT22;6773;51.192;7.024;2023-04-06T10:45:58;13.20;62.20
13405;DHT22;6773;51.192;7.024;2023-04-06T10:48:25;13.00;63.10
13405;DHT22;6773;51.192;7.024;2023-04-06T10:50:52;13.10;63.50
13405;DHT22;6773;51.192;7.024;2023-04-06T10:53:22;13.30;65.10
13405;DHT22;6773;51.192;7.024;2023-04-06T10:55:50;13.20;63.70
13405;DHT22;6773;51.192;7.024;2023-04-06T10:58:16;13.00;64.50
13405;DHT22;6773;51.192;7.024;2023-04-06T11:00:45;12.70;63.50
13405;DHT22;6773;51.192;7.024;2023-04-06T11:03:11;12.50;64.00
13405;DHT22;6773;51.192;7.024;2023-04-06T11:08:03;12.50;65.00
13405;DHT22;6773;51.192;7.024;2023-04-06T11:10:29;12.70;63.60
13405;DHT22;6773;51.192;7.024;2023-04-06T11:12:56;12.40;64.40
13405;DHT22;6773;51.192;7.024;2023-04-06T11:15:22;12.40;64.90
13405;DHT22;6773;51.192;7.024;2023-04-06T11:17:48;12.70;64.20
13405;DHT22;6773;51.192;7.024;2023-04-06T11:20:15;12.90;63.90
13405;DHT22;6773;51.192;7.024;2023-04-06T11:22:52;13.20;64.50
13405;DHT22;6773;51.192;7.024;2023-04-06T11:25:18;13.30;62.30
13405;DHT22;6773;51.192;7.024;2023-04-06T11:27:46;13.00;63.00
13405;DHT22;6773;51.192;7.024;2023-04-06T11:30:13;12.60;64.00
13405;DHT22;6773;51.192;7.024;2023-04-06T11:32:40;12.60;63.40
13405;DHT22;6773;51.192;7.024;2023-04-06T11:35:31;12.90;62.70
13405;DHT22;6773;51.192;7.024;2023-04-06T11:37:57;13.30;63.10
13405;DHT22;6773;51.192;7.024;2023-04-06T11:40:23;13.20;61.20
13405;DHT22;6773;51.192;7.024;2023-04-06T11:42:53;13.30;62.20
13405;DHT22;6773;51.192;7.024;2023-04-06T11:45:19;13.70;63.20
13405;DHT22;6773;51.192;7.024;2023-04-06T11:47:45;13.60;62.60
13405;DHT22;6773;51.192;7.024;2023-04-06T11:50:14;13.80;61.50
13405;DHT22;6773;51.192;7.024;2023-04-06T11:52:41;13.70;62.90
13405;DHT22;6773;51.192;7.024;2023-04-06T11:55:12;13.60;63.50
13405;DHT22;6773;51.192;7.024;2023-04-06T11:57:39;13.50;63.60
13405;DHT22;6773;51.192;7.024;2023-04-06T12:00:06;13.20;64.20
13405;DHT22;6773;51.192;7.024;2023-04-06T12:02:31;13.10;64.10
13405;DHT22;6773;51.192;7.024;2023-04-06T12:04:57;13.00;64.80
13405;DHT22;6773;51.192;7.024;2023-04-06T12:07:23;12.90;65.10
13405;DHT22;6773;51.192;7.024;2023-04-06T12:09:48;12.70;65.10
13405;DHT22;6773;51.192;7.024;2023-04-06T12:12:14;12.70;65.70
13405;DHT22;6773;51.192;7.024;2023-04-06T12:14:40;12.60;66.10
13405;DHT22;6773;51.192;7.024;2023-04-06T12:17:05;12.60;67.20
13405;DHT22;6773;51.192;7.024;2023-04-06T12:19:31;12.70;67.20
13405;DHT22;6773;51.192;7.024;2023-04-06T12:21:57;12.70;67.00
13405;DHT22;6773;51.192;7.024;2023-04-06T12:24:23;12.80;67.30
13405;DHT22;6773;51.192;7.024;2023-04-06T12:26:49;12.70;66.90
13405;DHT22;6773;51.192;7.024;2023-04-06T12:29:15;12.70;67.80
13405;DHT22;6773;51.192;7.024;2023-04-06T12:31:40;12.80;67.50
13405;DHT22;6773;51.192;7.024;2023-04-06T12:34:08;13.00;68.30
13405;DHT22;6773;51.192;7.024;2023-04-06T12:36:34;13.10;68.00
13405;DHT22;6773;51.192;7.024;2023-04-06T12:39:00;13.30;68.70
13405;DHT22;6773;51.192;7.024;2023-04-06T12:41:27;13.30;67.50
13405;DHT22;6773;51.192;7.024;2023-04-06T12:43:53;13.40;67.80
13405;DHT22;6773;51.192;7.024;2023-04-06T12:46:18;13.40;68.10
13405;DHT22;6773;51.192;7.024;2023-04-06T12:48:45;13.20;68.90
13405;DHT22;6773;51.192;7.024;2023-04-06T12:51:10;13.30;70.00
13405;DHT22;6773;51.192;7.024;2023-04-06T12:53:36;13.10;69.80
13405;DHT22;6773;51.192;7.024;2023-04-06T12:56:09;13.00;69.40
13405;DHT22;6773;51.192;7.024;2023-04-06T12:58:36;12.90;70.00
13405;DHT22;6773;51.192;7.024;2023-04-06T13:01:06;12.90;70.60
13405;DHT22;6773;51.192;7.024;2023-04-06T13:03:32;12.90;70.60
13405;DHT22;6773;51.192;7.024;2023-04-06T13:06:00;12.90;70.40
13405;DHT22;6773;51.192;7.024;2023-04-06T13:08:26;12.70;70.50
13405;DHT22;6773;51.192;7.024;2023-04-06T13:10:53;12.60;71.00
13405;DHT22;6773;51.192;7.024;2023-04-06T13:13:26;12.50;70.30
13405;DHT22;6773;51.192;7.024;2023-04-06T13:15:53;12.60;69.60
13405;DHT22;6773;51.192;7.024;2023-04-06T13:18:19;12.60;71.70
13405;DHT22;6773;51.192;7.024;2023-04-06T13:20:46;12.60;70.90
13405;DHT22;6773;51.192;7.024;2023-04-06T13:23:13;12.50;71.30
13405;DHT22;6773;51.192;7.024;2023-04-06T13:25:39;12.40;71.40
13405;DHT22;6773;51.192;7.024;2023-04-06T13:28:05;12.20;72.50
13405;DHT22;6773;51.192;7.024;2023-04-06T13:30:31;12.30;72.40
13405;DHT22;6773;51.192;7.024;2023-04-06T13:32:56;12.30;72.20
13405;DHT22;6773;51.192;7.024;2023-04-06T13:35:22;12.30;72.20
13405;DHT22;6773;51.192;7.024;2023-04-06T13:40:14;12.20;73.90
13405;DHT22;6773;51.192;7.024;2023-04-06T13:45:09;12.30;72.90
13405;DHT22;6773;51.192;7.024;2023-04-06T13:50:01;12.30;73.90
13405;DHT22;6773;51.192;7.024;2023-04-06T13:52:28;12.20;73.60
13405;DHT22;6773;51.192;7.024;2023-04-06T13:54:53;12.10;73.90
13405;DHT22;6773;51.192;7.024;2023-04-06T13:57:19;12.00;74.50
13405;DHT22;6773;51.192;7.024;2023-04-06T13:59:44;11.60;75.20
13405;DHT22;6773;51.192;7.024;2023-04-06T14:02:10;11.70;75.70
13405;DHT22;6773;51.192;7.024;2023-04-06T14:04:36;11.60;76.00
13405;DHT22;6773;51.192;7.024;2023-04-06T14:07:02;11.50;77.20
13405;DHT22;6773;51.192;7.024;2023-04-06T14:09:29;11.40;79.20
13405;DHT22;6773;51.192;7.024;2023-04-06T14:11:55;11.30;80.00
13405;DHT22;6773;51.192;7.024;2023-04-06T14:14:22;11.30;80.70
13405;DHT22;6773;51.192;7.024;2023-04-06T14:16:47;11.30;80.50
13405;DHT22;6773;51.192;7.024;2023-04-06T14:19:15;11.20;80.80
13405;DHT22;6773;51.192;7.024;2023-04-06T14:21:45;11.10;81.80
13405;DHT22;6773;51.192;7.024;2023-04-06T14:24:11;11.00;81.70
13405;DHT22;6773;51.192;7.024;2023-04-06T14:26:38;10.80;83.00
13405;DHT22;6773;51.192;7.024;2023-04-06T14:29:04;10.80;82.90
13405;DHT22;6773;51.192;7.024;2023-04-06T14:31:31;10.90;82.60
13405;DHT22;6773;51.192;7.024;2023-04-06T14:36:23;10.80;82.70
13405;DHT22;6773;51.192;7.024;2023-04-06T14:38:52;10.70;81.90
13405;DHT22;6773;51.192;7.024;2023-04-06T14:41:19;10.50;82.60
13405;DHT22;6773;51.192;7.024;2023-04-06T14:43:48;10.50;82.80
13405;DHT22;6773;51.192;7.024;2023-04-06T14:46:14;10.50;83.50
13405;DHT22;6773;51.192;7.024;2023-04-06T14:48:41;10.50;83.50
13405;DHT22;6773;51.192;7.024;2023-04-06T14:51:07;10.40;84.10
13405;DHT22;6773;51.192;7.024;2023-04-06T14:55:59;10.20;86.30
13405;DHT22;6773;51.192;7.024;2023-04-06T14:58:25;10.10;87.70
13405;DHT22;6773;51.192;7.024;2023-04-06T15:00:58;10.00;89.20
13405;DHT22;6773;51.192;7.024;2023-04-06T15:03:28;9.90;90.00
13405;DHT22;6773;51.192;7.024;2023-04-06T15:05:55;9.90;90.90
13405;DHT22;6773;51.192;7.024;2023-04-06T15:08:22;9.80;92.10
13405;DHT22;6773;51.192;7.024;2023-04-06T15:10:48;9.60;92.90
13405;DHT22;6773;51.192;7.024;2023-04-06T15:13:14;9.50;94.20
13405;DHT22;6773;51.192;7.024;2023-04-06T15:15:44;9.40;95.60
13405;DHT22;6773;51.192;7.024;2023-04-06T15:18:12;9.40;96.70
13405;DHT22;6773;51.192;7.024;2023-04-06T15:20:38;9.30;97.80
13405;DHT22;6773;51.192;7.024;2023-04-06T15:23:04;9.20;99.80
13405;DHT22;6773;51.192;7.024;2023-04-06T15:27:56;9.20;99.90
13405;DHT22;6773;51.192;7.024;2023-04-06T15:30:22;9.10;99.90
13405;DHT22;6773;51.192;7.024;2023-04-06T15:33:00;9.00;99.90
13405;DHT22;6773;51.192;7.024;2023-04-06T15:35:27;8.90;99.90
13405;DHT22;6773;51.192;7.024;2023-04-06T15:37:54;8.80;99.90
13405;DHT22;6773;51.192;7.024;2023-04-06T15:40:20;8.80;99.90
13405;DHT22;6773;51.192;7.024;2023-04-06T15:42:45;8.60;99.90
13405;DHT22;6773;51.192;7.024;2023-04-06T15:45:11;8.50;99.90
13405;DHT22;6773;51.192;7.024;2023-04-06T15:47:38;8.50;99.90
13405;DHT22;6773;51.192;7.024;2023-04-06T15:52:30;8.40;99.90
13405;DHT22;6773;51.192;7.024;2023-04-06T15:54:56;8.30;99.90
13405;DHT22;6773;51.192;7.024;2023-04-06T15:59:48;8.20;99.90
13405;DHT22;6773;51.192;7.024;2023-04-06T16:02:14;8.20;99.90
13405;DHT22;6773;51.192;7.024;2023-04-06T16:04:40;8.10;99.90
13405;DHT22;6773;51.192;7.024;2023-04-06T16:07:05;8.10;99.90
13405;DHT22;6773;51.192;7.024;2023-04-06T16:16:49;7.90;99.90
13405;DHT22;6773;51.192;7.024;2023-04-06T16:19:15;7.80;99.90
13405;DHT22;6773;51.192;7.024;2023-04-06T16:21:41;7.80;99.90
13405;DHT22;6773;51.192;7.024;2023-04-06T16:26:33;7.70;99.90
13405;DHT22;6773;51.192;7.024;2023-04-06T16:29:00;6.90;99.90
13405;DHT22;6773;51.192;7.024;2023-04-06T16:31:26;7.60;99.90
13405;DHT22;6773;51.192;7.024;2023-04-06T16:33:54;7.60;99.90
13405;DHT22;6773;51.192;7.024;2023-04-06T16:36:25;7.40;99.90
13405;DHT22;6773;51.192;7.024;2023-04-06T16:38:52;7.40;99.90
13405;DHT22;6773;51.192;7.024;2023-04-06T16:43:44;7.40;99.90
13405;DHT22;6773;51.192;7.024;2023-04-06T16:46:10;7.30;99.90
13405;DHT22;6773;51.192;7.024;2023-04-06T16:51:09;7.30;99.90
13405;DHT22;6773;51.192;7.024;2023-04-06T16:53:35;7.20;99.90
13405;DHT22;6773;51.192;7.024;2023-04-06T16:56:05;7.30;99.90
13405;DHT22;6773;51.192;7.024;2023-04-06T16:58:32;7.20;99.90
13405;DHT22;6773;51.192;7.024;2023-04-06T17:00:58;7.20;99.90
13405;DHT22;6773;51.192;7.024;2023-04-06T17:08:17;7.10;99.90
13405;DHT22;6773;51.192;7.024;2023-04-06T17:10:43;7.10;99.90
13405;DHT22;6773;51.192;7.024;2023-04-06T17:13:08;7.10;99.90
13405;DHT22;6773;51.192;7.024;2023-04-06T17:15:34;7.10;99.90
13405;DHT22;6773;51.192;7.024;2023-04-06T17:20:26;7.00;99.90
13405;DHT22;6773;51.192;7.024;2023-04-06T17:22:51;7.10;99.90
13405;DHT22;6773;51.192;7.024;2023-04-06T17:27:43;7.00;99.90
13405;DHT22;6773;51.192;7.024;2023-04-06T17:30:09;7.00;99.90
13405;DHT22;6773;51.192;7.024;2023-04-06T17:35:01;6.90;99.90
13405;DHT22;6773;51.192;7.024;2023-04-06T17:39:53;6.90;99.90
13405;DHT22;6773;51.192;7.024;2023-04-06T17:44:46;6.90;99.90
13405;DHT22;6773;51.192;7.024;2023-04-06T17:47:15;6.90;99.90
13405;DHT22;6773;51.192;7.024;2023-04-06T17:49:41;6.90;99.90
13405;DHT22;6773;51.192;7.024;2023-04-06T17:52:07;6.90;99.90
13405;DHT22;6773;51.192;7.024;2023-04-06T17:54:34;6.90;99.90
13405;DHT22;6773;51.192;7.024;2023-04-06T18:04:19;6.80;99.90
13405;DHT22;6773;51.192;7.024;2023-04-06T18:06:44;6.80;99.90
13405;DHT22;6773;51.192;7.024;2023-04-06T18:09:10;6.90;99.90
13405;DHT22;6773;51.192;7.024;2023-04-06T18:11:36;6.80;99.90
13405;DHT22;6773;51.192;7.024;2023-04-06T18:14:06;6.80;99.90
13405;DHT22;6773;51.192;7.024;2023-04-06T18:16:32;6.80;99.90
13405;DHT22;6773;51.192;7.024;2023-04-06T18:18:59;6.80;99.90
13405;DHT22;6773;51.192;7.024;2023-04-06T18:21:25;6.80;99.90
13405;DHT22;6773;51.192;7.024;2023-04-06T18:23:52;6.70;99.90
13405;DHT22;6773;51.192;7.024;2023-04-06T18:26:18;6.70;99.90
13405;DHT22;6773;51.192;7.024;2023-04-06T18:31:10;6.70;99.90
13405;DHT22;6773;51.192;7.024;2023-04-06T18:33:36;6.70;99.90
13405;DHT22;6773;51.192;7.024;2023-04-06T18:36:02;6.70;99.90
13405;DHT22;6773;51.192;7.024;2023-04-06T18:38:27;6.70;99.90